Time;durP1;ratioP1;P1;durP2;ratioP2;P2;SDS_P1;SDS_P2;PMS_P1;PMS_P2;Temp;Humidity;BMP_temperature;BMP_pressure;BME280_temperature;BME280_humidity;BME280_pressure;Samples;Min_cycle;Max_cycle;Signal;HPM_P1;HPM_P2
2023/01/02 00:02:06;;;;;;;5.20;4.90;;;7.80;99.90;;;;;;6064449;23;20422;-76
2023/01/02 00:04:33;;;;;;;5.73;5.43;;;7.80;99.90;;;;;;6087259;23;20412;-76
2023/01/02 00:07:00;;;;;;;5.40;5.10;;;7.80;99.90;;;;;;6086559;23;20840;-76
2023/01/02 00:09:27;;;;;;;5.07;4.85;;;7.80;99.90;;;;;;6063930;23;20757;-75
2023/01/02 00:11:54;;;;;;;6.00;5.60;;;7.80;99.90;;;;;;6090058;23;20428;-76
2023/01/02 00:14:20;;;;;;;8.43;7.85;;;7.80;99.90;;;;;;6093638;23;20755;-76
2023/01/02 00:16:47;;;;;;;9.73;9.02;;;7.80;99.90;;;;;;6090960;23;20381;-76
2023/01/02 00:19:14;;;;;;;7.93;7.43;;;7.70;99.90;;;;;;6092119;23;20377;-76
2023/01/02 00:21:41;;;;;;;8.93;8.32;;;7.80;99.90;;;;;;6092167;23;20409;-75
2023/01/02 00:24:08;;;;;;;8.63;8.05;;;7.80;99.90;;;;;;6091114;23;20369;-76
2023/01/02 00:26:35;;;;;;;6.90;6.40;;;7.80;99.90;;;;;;6092342;23;20401;-76
2023/01/02 00:29:02;;;;;;;6.17;5.87;;;7.80;99.90;;;;;;6093168;23;20458;-76
2023/01/02 00:31:29;;;;;;;6.35;5.95;;;7.80;99.90;;;;;;6116439;23;20381;-75
2023/01/02 00:33:56;;;;;;;5.97;5.65;;;7.90;99.90;;;;;;6091630;23;20390;-75
2023/01/02 00:36:23;;;;;;;6.10;5.70;;;7.90;99.90;;;;;;6092161;23;20393;-76
2023/01/02 00:38:54;;;;;;;6.00;5.70;;;7.90;99.90;;;;;;6092837;23;20440;-75
2023/01/02 00:41:21;;;;;;;6.43;6.03;;;7.90;99.90;;;;;;6116349;23;20893;-76
2023/01/02 00:43:48;;;;;;;5.70;5.40;;;7.90;99.90;;;;;;6091409;23;20400;-76
2023/01/02 00:46:15;;;;;;;4.97;4.68;;;7.90;99.90;;;;;;6092029;23;20377;-76
2023/01/02 00:48:41;;;;;;;5.38;5.07;;;7.80;99.90;;;;;;6115975;23;20396;-76
2023/01/02 00:51:08;;;;;;;4.80;4.50;;;7.80;99.90;;;;;;6092702;23;20702;-75
2023/01/02 00:53:35;;;;;;;4.70;4.40;;;7.80;99.90;;;;;;6116085;23;20436;-76
2023/01/02 00:56:03;;;;;;;4.57;4.30;;;7.80;99.90;;;;;;6091371;23;20385;-77
2023/01/02 00:58:29;;;;;;;4.20;4.00;;;7.80;99.90;;;;;;6093143;23;20381;-77
2023/01/02 01:00:56;;;;;;;4.35;4.15;;;7.80;99.90;;;;;;6091680;23;20444;-77
2023/01/02 01:03:23;;;;;;;4.63;4.43;;;7.80;99.90;;;;;;6091828;23;20385;-76
2023/01/02 01:05:50;;;;;;;4.93;4.63;;;7.80;99.90;;;;;;6090012;23;20453;-77
2023/01/02 01:08:17;;;;;;;4.90;4.60;;;7.80;99.90;;;;;;6090905;23;20379;-76
2023/01/02 01:10:44;;;;;;;4.93;4.63;;;7.70;99.90;;;;;;6090845;23;20382;-77
2023/01/02 01:13:10;;;;;;;4.03;3.83;;;7.70;99.90;;;;;;6089954;23;20456;-76
2023/01/02 01:15:37;;;;;;;4.70;4.40;;;7.70;99.90;;;;;;6091076;23;20715;-76
2023/01/02 01:18:04;;;;;;;4.60;4.33;;;7.70;99.90;;;;;;6090052;23;20382;-76
2023/01/02 01:20:31;;;;;;;5.82;5.43;;;7.70;99.90;;;;;;6115846;23;20393;-76
2023/01/02 01:22:58;;;;;;;4.93;4.63;;;7.70;99.90;;;;;;6094183;23;20377;-76
2023/01/02 01:25:25;;;;;;;4.68;4.47;;;7.70;99.90;;;;;;6094176;23;20437;-77
2023/01/02 01:27:53;;;;;;;5.13;4.82;;;7.70;99.90;;;;;;6094657;23;20683;-76
2023/01/02 01:30:20;;;;;;;4.60;4.40;;;7.70;99.90;;;;;;6095836;23;20763;-77
2023/01/02 01:32:47;;;;;;;4.40;4.20;;;7.80;99.90;;;;;;6095139;23;20397;-76
2023/01/02 01:35:14;;;;;;;5.00;4.70;;;7.80;99.90;;;;;;6064356;23;20410;-76
2023/01/02 01:37:40;;;;;;;4.85;4.55;;;7.80;99.90;;;;;;6088742;23;20409;-76
2023/01/02 01:40:08;;;;;;;4.90;4.60;;;7.80;99.90;;;;;;6094617;23;20428;-76
2023/01/02 01:42:35;;;;;;;4.82;4.53;;;7.80;99.90;;;;;;6093989;23;20709;-76
2023/01/02 01:45:02;;;;;;;5.20;4.90;;;7.80;99.90;;;;;;6093402;23;20465;-76
2023/01/02 01:47:50;;;;;;;5.00;4.70;;;7.70;99.90;;;;;;6095434;23;20857;-76
2023/01/02 01:50:32;;;;;;;5.80;5.43;;;7.70;99.90;;;;;;6065498;23;20493;-76
2023/01/02 01:53:07;;;;;;;5.28;4.97;;;7.70;99.90;;;;;;6065235;23;20383;-76
2023/01/02 01:55:39;;;;;;;5.23;4.93;;;7.60;99.90;;;;;;6093376;23;20434;-76
2023/01/02 01:58:13;;;;;;;4.60;4.40;;;7.60;99.90;;;;;;6092917;23;20428;-76
2023/01/02 02:00:41;;;;;;;5.57;5.27;;;7.60;99.90;;;;;;6093601;23;20389;-76
2023/01/02 10:40:16;;;;;;;5.00;4.70;;;9.20;99.90;;;;;;6067988;23;20395;-76
2023/01/02 10:42:43;;;;;;;5.50;5.20;;;9.20;99.90;;;;;;6096280;23;20466;-79
2023/01/02 10:45:15;;;;;;;5.32;5.03;;;9.30;99.90;;;;;;6119584;23;20759;-79
2023/01/02 10:47:43;;;;;;;5.05;4.75;;;9.30;99.90;;;;;;6095833;23;20741;-77
2023/01/02 10:50:19;;;;;;;5.10;4.80;;;9.40;99.90;;;;;;6094652;23;20450;-76
2023/01/02 10:53:04;;;;;;;5.50;5.20;;;9.40;99.90;;;;;;6095250;23;20415;-77
2023/01/02 10:55:39;;;;;;;5.87;5.47;;;9.40;99.90;;;;;;6094292;23;20379;-77
2023/01/02 10:58:22;;;;;;;5.30;5.00;;;9.40;99.90;;;;;;6121057;23;20443;-77
2023/01/02 11:01:01;;;;;;;4.73;4.53;;;9.40;99.90;;;;;;6092236;23;20431;-77
2023/01/02 11:03:29;;;;;;;5.20;4.90;;;9.40;99.90;;;;;;6087002;23;20397;-77
2023/01/02 11:05:57;;;;;;;5.60;5.30;;;9.50;99.90;;;;;;6087188;23;20397;-77
2023/01/02 11:08:53;;;;;;;5.13;4.82;;;9.50;99.90;;;;;;6070520;23;20377;-77
2023/01/02 11:11:21;;;;;;;4.90;4.60;;;9.50;99.90;;;;;;6069240;23;20377;-77
2023/01/02 11:13:51;;;;;;;4.75;4.50;;;9.50;99.90;;;;;;6068232;23;20404;-77
2023/01/02 11:16:22;;;;;;;4.70;4.40;;;9.60;99.90;;;;;;6069652;23;20381;-77
2023/01/02 11:19:00;;;;;;;4.85;4.65;;;9.70;99.90;;;;;;6067360;23;20377;-77
2023/01/02 11:21:39;;;;;;;4.78;4.57;;;9.70;99.90;;;;;;6068749;23;20469;-76
2023/01/02 11:24:18;;;;;;;4.95;4.65;;;9.70;99.90;;;;;;6068982;23;20389;-77
2023/01/02 11:26:48;;;;;;;4.70;4.50;;;9.70;99.90;;;;;;6068279;23;20374;-77
2023/01/02 11:29:21;;;;;;;4.55;4.35;;;9.70;99.90;;;;;;6069420;23;20441;-76
2023/01/02 11:31:50;;;;;;;5.03;4.72;;;9.80;99.90;;;;;;6068483;23;20381;-76
2023/01/02 11:34:34;;;;;;;4.93;4.63;;;9.90;99.90;;;;;;6070551;23;20389;-76
2023/01/02 11:37:11;;;;;;;4.80;4.60;;;9.90;99.90;;;;;;6068490;23;20462;-76
2023/01/02 11:39:39;;;;;;;5.28;4.97;;;9.90;99.90;;;;;;6068937;23;20389;-76
2023/01/02 11:45:10;;;;;;;5.00;4.70;;;9.90;99.90;;;;;;6093724;23;20374;-76
2023/01/02 11:47:45;;;;;;;5.00;4.70;;;10.00;99.90;;;;;;6067863;23;20401;-76
2023/01/02 11:50:27;;;;;;;4.90;4.53;;;10.00;99.90;;;;;;6067569;23;20448;-77
2023/01/02 11:53:04;;;;;;;4.65;4.35;;;10.10;99.90;;;;;;6068377;23;20385;-76
2023/01/02 11:55:55;;;;;;;4.85;4.55;;;10.10;99.90;;;;;;6093763;23;20401;-77
2023/01/02 11:58:36;;;;;;;4.63;4.37;;;10.10;99.90;;;;;;6068367;23;20373;-76
2023/01/02 12:01:12;;;;;;;4.70;4.40;;;10.30;99.90;;;;;;6066221;23;20834;-77
2023/01/02 12:03:39;;;;;;;4.57;4.38;;;10.30;99.90;;;;;;6067354;23;20405;-77
2023/01/02 12:06:44;;;;;;;4.65;4.45;;;10.40;99.90;;;;;;6067940;23;20872;-77
2023/01/02 12:09:13;;;;;;;4.03;3.83;;;10.40;99.90;;;;;;6058729;23;20377;-76
2023/01/02 12:11:57;;;;;;;4.40;4.20;;;10.30;99.90;;;;;;6068938;23;20424;-78
2023/01/02 12:14:54;;;;;;;4.80;4.50;;;10.40;99.90;;;;;;6067582;23;20425;-76
2023/01/02 12:17:55;;;;;;;4.28;4.07;;;10.50;99.90;;;;;;6067388;23;20376;-77
2023/01/02 12:20:58;;;;;;;4.35;4.15;;;10.60;99.90;;;;;;6066277;23;20738;-77
2023/01/02 12:23:57;;;;;;;4.72;4.53;;;10.50;99.90;;;;;;6069008;23;20373;-76
2023/01/02 12:26:31;;;;;;;4.10;3.90;;;10.50;99.90;;;;;;6059892;23;20374;-76
2023/01/02 12:29:29;;;;;;;4.10;3.90;;;10.60;99.90;;;;;;6068553;23;20378;-77
2023/01/02 12:32:29;;;;;;;3.85;3.65;;;10.80;99.90;;;;;;6091930;23;20369;-76
2023/01/02 12:35:08;;;;;;;4.00;3.80;;;11.00;99.90;;;;;;6055982;23;20377;-77
2023/01/02 12:37:56;;;;;;;4.03;3.83;;;11.00;99.90;;;;;;6068659;23;20374;-77
2023/01/02 12:40:56;;;;;;;3.78;3.58;;;11.00;99.90;;;;;;6089151;23;20378;-77
2023/01/02 12:44:00;;;;;;;3.75;3.55;;;11.10;99.90;;;;;;6067550;23;20464;-76
2023/01/02 12:46:34;;;;;;;3.20;3.10;;;10.90;99.90;;;;;;6067643;23;20369;-77
2023/01/02 12:49:13;;;;;;;3.70;3.50;;;10.80;99.90;;;;;;6068215;23;20405;-78
2023/01/02 12:51:58;;;;;;;3.60;3.40;;;10.90;99.90;;;;;;6067343;23;20396;-76
2023/01/02 12:54:50;;;;;;;3.50;3.30;;;10.90;99.90;;;;;;6067293;23;20385;-77
2023/01/02 12:58:02;;;;;;;3.63;3.42;;;10.90;99.90;;;;;;6067443;23;20384;-77
2023/01/02 13:00:50;;;;;;;3.70;3.50;;;10.80;99.90;;;;;;6065821;23;20385;-76
2023/01/02 13:03:36;;;;;;;3.72;3.53;;;10.80;99.90;;;;;;6065030;23;20750;-76
2023/01/02 13:06:43;;;;;;;3.30;3.10;;;10.90;99.90;;;;;;6068169;23;20382;-77
2023/01/02 13:09:34;;;;;;;3.75;3.55;;;10.80;99.90;;;;;;5953813;23;20540;-78
2023/01/02 13:12:23;;;;;;;3.63;3.42;;;10.80;99.90;;;;;;6090235;23;20411;-76
2023/01/02 13:14:59;;;;;;;3.23;3.10;;;10.80;99.90;;;;;;6067420;23;20916;-77
2023/01/02 13:17:35;;;;;;;3.78;3.58;;;10.80;99.90;;;;;;6068678;23;20373;-77
2023/01/02 13:20:23;;;;;;;2.60;2.50;;;10.70;99.90;;;;;;6094500;23;20429;-77
2023/01/02 13:23:21;;;;;;;2.90;2.80;;;10.60;99.90;;;;;;6069257;23;20381;-77
2023/01/02 13:25:51;;;;;;;3.40;3.20;;;10.60;99.90;;;;;;6095301;23;20381;-76
2023/01/02 13:28:20;;;;;;;2.72;2.63;;;10.70;99.90;;;;;;6070059;23;20392;-77
2023/01/02 13:30:50;;;;;;;3.58;3.42;;;10.70;99.90;;;;;;6070683;23;20842;-76
2023/01/02 13:33:38;;;;;;;3.35;3.25;;;10.60;99.90;;;;;;6073414;23;20387;-77
2023/01/02 13:36:19;;;;;;;2.83;2.72;;;10.70;99.90;;;;;;6069733;23;20380;-77
2023/01/02 13:38:53;;;;;;;3.45;3.25;;;10.60;99.90;;;;;;6069556;23;20365;-76
2023/01/02 13:41:21;;;;;;;2.90;2.80;;;10.50;99.90;;;;;;6070123;23;20428;-78
2023/01/02 13:43:54;;;;;;;2.83;2.73;;;10.40;99.90;;;;;;6094607;23;20723;-77
2023/01/02 13:46:37;;;;;;;2.72;2.63;;;10.30;99.90;;;;;;6070201;23;20452;-76
2023/01/02 13:49:26;;;;;;;4.00;3.80;;;10.30;99.90;;;;;;6073361;23;20381;-76
2023/01/02 13:51:58;;;;;;;3.42;3.22;;;10.30;99.90;;;;;;6095260;23;20742;-77
2023/01/02 13:54:35;;;;;;;3.30;3.20;;;10.20;99.90;;;;;;6069899;23;20415;-79
2023/01/02 13:57:25;;;;;;;3.03;2.83;;;10.30;99.90;;;;;;6094397;23;20389;-77
2023/01/02 14:00:24;;;;;;;2.80;2.70;;;10.30;99.90;;;;;;6061744;23;20456;-76
2023/01/02 14:03:27;;;;;;;3.05;2.90;;;10.40;99.90;;;;;;6068713;23;20676;-77
2023/01/02 14:05:59;;;;;;;3.35;3.25;;;10.40;99.90;;;;;;5927387;24;20393;-76
2023/01/02 14:08:54;;;;;;;3.10;3.00;;;10.30;99.90;;;;;;6051423;23;20457;-77
2023/01/02 14:11:30;;;;;;;3.25;3.10;;;10.30;99.90;;;;;;6026498;23;20428;-77
2023/01/02 14:14:35;;;;;;;3.20;3.00;;;10.30;99.90;;;;;;6072828;23;20896;-76
2023/01/02 14:17:19;;;;;;;3.45;3.28;;;10.40;99.90;;;;;;6069053;23;20386;-76
2023/01/02 14:19:46;;;;;;;3.90;3.70;;;10.20;99.90;;;;;;6070037;23;20738;-77
2023/01/02 14:22:16;;;;;;;3.58;3.38;;;10.10;99.90;;;;;;6069328;23;20424;-76
2023/01/02 14:24:48;;;;;;;3.92;3.67;;;10.00;99.90;;;;;;6069595;23;20443;-76
2023/01/02 14:27:15;;;;;;;3.33;3.22;;;10.00;99.90;;;;;;6068702;23;20449;-77
2023/01/02 14:29:52;;;;;;;3.10;2.90;;;10.00;99.90;;;;;;6093447;23;20418;-77
2023/01/02 14:32:39;;;;;;;3.40;3.30;;;10.00;99.90;;;;;;6068787;23;20365;-77
2023/01/02 14:35:20;;;;;;;2.60;2.50;;;10.00;99.90;;;;;;6068948;23;20377;-77
2023/01/02 14:38:04;;;;;;;2.75;2.60;;;10.10;99.90;;;;;;6069736;23;20428;-77
2023/01/02 14:40:39;;;;;;;3.58;3.38;;;10.00;99.90;;;;;;6068732;23;20468;-77
2023/01/02 14:46:03;;;;;;;3.10;2.90;;;9.90;99.90;;;;;;6093706;23;20369;-77
2023/01/02 14:48:54;;;;;;;3.45;3.25;;;9.90;99.90;;;;;;6068526;23;20409;-78
2023/01/02 14:51:41;;;;;;;4.38;4.07;;;9.90;99.90;;;;;;6069486;23;20385;-78
2023/01/02 14:54:16;;;;;;;4.35;4.05;;;9.80;99.90;;;;;;6068322;23;20441;-78
2023/01/02 14:57:15;;;;;;;4.95;4.65;;;9.80;99.90;;;;;;6069185;23;20418;-79
2023/01/02 14:59:46;;;;;;;4.72;4.43;;;9.80;99.90;;;;;;6067874;23;20412;-78
2023/01/02 15:02:20;;;;;;;4.70;4.40;;;9.80;99.90;;;;;;6068778;23;20389;-78
2023/01/02 15:04:54;;;;;;;4.50;4.20;;;9.80;99.90;;;;;;6068447;23;20373;-78
2023/01/02 15:07:33;;;;;;;3.60;3.40;;;9.80;99.90;;;;;;6094434;23;20901;-78
2023/01/02 15:10:10;;;;;;;3.80;3.60;;;9.80;99.90;;;;;;6068918;23;20747;-78
2023/01/02 15:15:38;;;;;;;4.18;3.88;;;9.80;99.90;;;;;;6094428;23;20441;-78
2023/01/02 15:18:10;;;;;;;4.72;4.43;;;9.90;99.90;;;;;;6092386;23;20424;-79
2023/01/02 15:20:37;;;;;;;4.25;3.95;;;9.80;99.90;;;;;;6069221;23;20420;-78
2023/01/02 15:23:04;;;;;;;3.70;3.50;;;9.90;99.90;;;;;;6068362;23;20440;-78
2023/01/02 15:25:40;;;;;;;3.92;3.72;;;9.90;99.90;;;;;;6092790;23;20385;-77
2023/01/02 15:28:26;;;;;;;3.95;3.75;;;10.00;99.90;;;;;;6066777;23;20833;-78
2023/01/02 15:31:14;;;;;;;4.20;3.90;;;9.90;99.90;;;;;;6068152;23;20386;-78
2023/01/02 15:33:41;;;;;;;4.30;4.00;;;9.90;99.90;;;;;;6069081;23;20378;-78
2023/01/02 15:36:13;;;;;;;3.58;3.38;;;9.80;99.90;;;;;;6068580;23;20374;-78
2023/01/02 15:38:40;;;;;;;4.40;4.10;;;9.90;99.90;;;;;;6069185;23;20377;-78
2023/01/02 15:41:16;;;;;;;4.05;3.85;;;9.90;99.90;;;;;;6091337;23;20388;-78
2023/01/02 15:46:30;;;;;;;4.20;3.90;;;9.90;99.90;;;;;;6093356;23;20373;-78
2023/01/02 15:48:58;;;;;;;4.70;4.40;;;9.90;99.90;;;;;;6069032;23;20452;-77
2023/01/02 15:51:26;;;;;;;6.72;6.22;;;9.80;99.90;;;;;;6067952;23;20382;-77
2023/01/02 15:54:12;;;;;;;6.13;5.72;;;9.70;99.90;;;;;;6071230;23;20433;-77
2023/01/02 15:56:40;;;;;;;5.30;4.90;;;9.70;99.90;;;;;;6068654;23;20826;-76
2023/01/02 15:59:33;;;;;;;4.80;4.50;;;9.60;99.90;;;;;;6067951;23;20381;-76
2023/01/02 16:02:01;;;;;;;7.95;7.35;;;9.60;99.90;;;;;;6093672;23;20462;-77
2023/01/02 16:04:31;;;;;;;6.65;6.15;;;9.60;99.90;;;;;;6093140;23;20376;-78
2023/01/02 16:07:11;;;;;;;5.10;4.80;;;9.60;99.90;;;;;;6069206;23;20719;-76
2023/01/02 16:09:39;;;;;;;4.55;4.25;;;9.60;99.90;;;;;;6068089;23;20826;-77
2023/01/02 16:12:17;;;;;;;4.55;4.25;;;9.60;99.90;;;;;;6068733;23;20377;-76
2023/01/02 16:14:49;;;;;;;4.40;4.10;;;9.70;99.90;;;;;;6068152;23;20468;-76
2023/01/02 16:17:27;;;;;;;4.00;3.80;;;9.70;99.90;;;;;;6067819;23;20381;-78
2023/01/02 16:20:26;;;;;;;3.80;3.60;;;9.70;99.90;;;;;;6092190;23;20368;-78
2023/01/02 16:23:03;;;;;;;4.67;4.37;;;9.70;99.90;;;;;;6020595;23;20673;-78
2023/01/02 16:25:34;;;;;;;4.00;3.80;;;9.60;99.90;;;;;;6067760;23;20437;-79
2023/01/02 16:28:06;;;;;;;5.13;4.72;;;9.60;99.90;;;;;;6067817;23;20935;-78
2023/01/02 16:31:13;;;;;;;4.30;4.00;;;9.60;99.90;;;;;;6089423;23;20456;-78
2023/01/02 16:33:42;;;;;;;4.40;4.10;;;9.60;99.90;;;;;;6066355;23;20388;-78
2023/01/02 16:36:13;;;;;;;4.55;4.25;;;9.60;99.90;;;;;;6067513;23;20381;-78
2023/01/02 16:38:49;;;;;;;4.50;4.20;;;9.60;99.90;;;;;;6066547;23;20381;-76
2023/01/02 16:41:43;;;;;;;5.07;4.68;;;9.50;99.90;;;;;;6066884;23;20385;-78
2023/01/02 16:44:15;;;;;;;4.57;4.28;;;9.50;99.90;;;;;;6066631;23;20436;-78
2023/01/02 16:46:44;;;;;;;5.05;4.65;;;9.50;99.90;;;;;;6067193;23;20381;-78
2023/01/02 16:49:20;;;;;;;5.05;4.65;;;9.50;99.90;;;;;;6091941;23;20702;-78
2023/01/02 16:51:51;;;;;;;5.13;4.72;;;9.50;99.90;;;;;;6066348;23;20590;-78
2023/01/02 16:54:18;;;;;;;4.65;4.32;;;9.50;99.90;;;;;;6067499;23;20830;-78
2023/01/02 16:56:46;;;;;;;5.07;4.68;;;9.50;99.90;;;;;;6067464;23;20936;-79
2023/01/02 16:59:13;;;;;;;4.40;4.10;;;9.40;99.90;;;;;;6065421;23;20381;-79
2023/01/02 17:01:40;;;;;;;4.30;4.00;;;9.40;99.90;;;;;;6066409;23;20381;-78
2023/01/02 17:04:11;;;;;;;4.30;4.00;;;9.50;99.90;;;;;;6065355;23;20754;-78
2023/01/02 17:06:38;;;;;;;4.40;4.05;;;9.40;99.90;;;;;;6066548;23;20441;-77
2023/01/02 17:09:05;;;;;;;4.43;4.13;;;9.40;99.90;;;;;;6065680;23;20389;-79
2023/01/02 17:11:32;;;;;;;4.20;3.90;;;9.50;99.90;;;;;;6065985;23;20385;-78
2023/01/02 17:14:00;;;;;;;4.60;4.30;;;9.40;99.90;;;;;;6065330;23;20401;-78
2023/01/02 17:16:27;;;;;;;5.15;4.75;;;9.40;99.90;;;;;;6065500;23;20766;-78
2023/01/02 17:18:54;;;;;;;4.47;4.18;;;9.40;99.90;;;;;;6064953;23;20381;-78
2023/01/02 17:21:21;;;;;;;5.07;4.68;;;9.40;99.90;;;;;;6066024;23;20380;-79
2023/01/02 17:23:54;;;;;;;4.50;4.20;;;9.40;99.90;;;;;;6066499;23;20455;-79
2023/01/02 17:26:21;;;;;;;4.78;4.45;;;9.40;99.90;;;;;;6066245;23;20378;-78
2023/01/02 17:28:48;;;;;;;5.20;4.80;;;9.40;99.90;;;;;;6066360;23;20388;-78
2023/01/02 17:31:15;;;;;;;6.00;5.50;;;9.40;99.90;;;;;;6065592;23;20373;-77
2023/01/02 17:33:49;;;;;;;5.83;5.33;;;9.30;99.90;;;;;;6067680;23;20381;-79
2023/01/02 17:36:16;;;;;;;5.85;5.35;;;9.30;99.90;;;;;;6065312;23;20392;-78
2023/01/02 17:38:43;;;;;;;6.22;5.63;;;9.30;99.90;;;;;;6066196;23;20385;-78
2023/01/02 17:41:10;;;;;;;6.60;6.00;;;9.20;99.90;;;;;;6064736;23;20385;-78
2023/01/02 17:43:37;;;;;;;7.00;6.40;;;9.20;99.90;;;;;;6065787;23;20440;-78
2023/01/02 17:46:24;;;;;;;4.87;4.47;;;9.20;99.90;;;;;;6071435;23;20393;-79
2023/01/02 17:49:11;;;;;;;5.40;5.00;;;9.20;99.90;;;;;;6073148;23;20457;-79
2023/01/02 17:51:38;;;;;;;5.07;4.68;;;9.20;99.90;;;;;;6068877;23;20381;-79
2023/01/02 17:54:05;;;;;;;5.63;5.13;;;9.20;99.90;;;;;;6067070;23;20377;-79
2023/01/02 17:56:33;;;;;;;5.75;5.25;;;9.20;99.90;;;;;;6092864;23;20762;-78
2023/01/02 17:59:00;;;;;;;5.97;5.47;;;9.20;99.90;;;;;;6093110;23;20449;-78
2023/01/02 18:01:27;;;;;;;6.30;5.70;;;9.20;99.90;;;;;;6067705;23;20920;-79
2023/01/02 18:03:55;;;;;;;5.20;4.80;;;9.10;99.90;;;;;;6067405;23;20978;-78
2023/01/02 18:06:22;;;;;;;4.20;3.90;;;9.20;99.90;;;;;;6068974;23;20410;-79
2023/01/02 18:08:53;;;;;;;4.63;4.32;;;9.20;99.90;;;;;;6069338;23;20385;-79
2023/01/02 18:11:20;;;;;;;6.03;5.53;;;9.20;99.90;;;;;;6068025;23;20735;-79
2023/01/02 18:13:50;;;;;;;6.20;5.60;;;9.20;99.90;;;;;;6093763;23;20412;-78
2023/01/02 18:16:25;;;;;;;5.20;4.80;;;9.10;99.90;;;;;;6067758;23;20393;-78
2023/01/02 18:18:52;;;;;;;5.40;5.00;;;9.10;99.90;;;;;;6069145;23;20388;-78
2023/01/02 18:21:27;;;;;;;5.43;5.00;;;9.10;99.90;;;;;;6067715;23;20416;-78
2023/01/02 18:24:01;;;;;;;4.60;4.30;;;9.10;99.90;;;;;;6093469;23;20440;-77
2023/01/02 18:26:30;;;;;;;6.18;5.68;;;9.10;99.90;;;;;;6063988;23;20388;-77
2023/01/02 18:28:59;;;;;;;6.85;6.25;;;9.20;99.90;;;;;;6067485;23;20385;-77
2023/01/02 18:31:41;;;;;;;7.15;6.55;;;9.10;99.90;;;;;;6092316;23;20377;-77
2023/01/02 18:34:27;;;;;;;6.07;5.57;;;9.10;99.90;;;;;;6068442;23;20392;-77
2023/01/02 18:37:22;;;;;;;6.70;6.20;;;9.10;99.90;;;;;;6071662;23;20462;-77
2023/01/02 18:39:49;;;;;;;6.95;6.45;;;9.10;99.90;;;;;;6066487;23;20440;-77
2023/01/02 18:42:23;;;;;;;5.53;5.13;;;9.10;99.90;;;;;;6064496;23;20694;-78
2023/01/02 18:44:51;;;;;;;6.90;6.40;;;9.10;99.90;;;;;;6066458;23;20385;-76
2023/01/02 18:47:28;;;;;;;5.60;5.20;;;9.20;99.90;;;;;;6067620;23;20382;-77
2023/01/02 18:50:04;;;;;;;5.43;5.03;;;9.20;99.90;;;;;;6091280;23;20385;-77
2023/01/02 18:52:32;;;;;;;5.23;4.83;;;9.10;99.90;;;;;;6068287;23;20412;-77
2023/01/02 18:55:24;;;;;;;4.30;4.00;;;9.10;99.90;;;;;;6067482;23;20392;-77
2023/01/02 18:58:08;;;;;;;5.28;4.88;;;9.10;99.90;;;;;;6058286;23;20385;-77
2023/01/02 19:00:38;;;;;;;5.70;5.20;;;9.10;99.90;;;;;;6092255;23;20401;-77
2023/01/02 19:03:36;;;;;;;4.78;4.47;;;9.00;99.90;;;;;;6092544;23;20453;-77
2023/01/02 19:06:15;;;;;;;4.70;4.30;;;9.00;99.90;;;;;;6065230;23;20768;-77
2023/01/02 19:08:42;;;;;;;5.22;4.72;;;9.00;99.90;;;;;;6046319;23;20703;-77
2023/01/02 19:14:36;;;;;;;4.85;4.50;;;8.90;99.90;;;;;;6091750;23;20365;-77
2023/01/02 19:17:22;;;;;;;5.40;4.90;;;8.90;99.90;;;;;;6065793;23;20853;-77
2023/01/02 19:19:50;;;;;;;5.20;4.80;;;8.90;99.90;;;;;;6066301;23;20807;-77
2023/01/02 19:22:20;;;;;;;5.07;4.68;;;8.90;99.90;;;;;;6066020;23;20388;-77
2023/01/02 19:24:48;;;;;;;4.60;4.30;;;8.90;99.90;;;;;;6092221;23;20444;-77
2023/01/02 19:27:26;;;;;;;5.25;4.85;;;8.90;99.90;;;;;;6091184;23;20449;-77
2023/01/02 19:29:53;;;;;;;4.22;3.92;;;8.90;99.90;;;;;;6067237;23;20386;-78
2023/01/02 19:32:30;;;;;;;5.22;4.82;;;8.90;99.90;;;;;;6090199;23;20377;-78
2023/01/02 19:35:25;;;;;;;6.32;5.82;;;8.90;99.90;;;;;;6090819;23;20443;-79
2023/01/02 19:37:51;;;;;;;5.60;5.13;;;8.90;99.90;;;;;;6059815;23;20408;-77
2023/01/02 19:40:21;;;;;;;5.60;5.10;;;8.90;99.90;;;;;;6065862;23;20374;-78
2023/01/02 19:42:50;;;;;;;6.25;5.72;;;8.90;99.90;;;;;;6066471;23;20385;-77
2023/01/02 19:45:19;;;;;;;5.45;5.05;;;8.80;99.90;;;;;;6065912;23;20378;-77
2023/01/02 19:47:48;;;;;;;4.75;4.35;;;8.80;99.90;;;;;;6067154;23;20842;-79
2023/01/02 19:50:23;;;;;;;4.70;4.40;;;8.80;99.90;;;;;;6066466;23;20378;-77
2023/01/02 19:52:50;;;;;;;3.95;3.65;;;8.80;99.90;;;;;;6068089;23;20385;-77
2023/01/02 19:55:18;;;;;;;4.78;4.40;;;8.80;99.90;;;;;;6066817;23;20373;-77
2023/01/02 19:57:46;;;;;;;4.97;4.57;;;8.80;99.90;;;;;;6067571;23;20401;-77
2023/01/02 20:00:15;;;;;;;6.00;5.53;;;8.80;99.90;;;;;;6065895;23;20381;-78
2023/01/02 20:02:48;;;;;;;5.25;4.85;;;8.80;99.90;;;;;;6068016;23;20385;-79
2023/01/02 20:05:17;;;;;;;4.68;4.38;;;8.80;99.90;;;;;;6066616;23;20389;-77
2023/01/02 20:07:49;;;;;;;4.90;4.55;;;8.80;99.90;;;;;;6067743;23;20389;-78
2023/01/02 20:10:19;;;;;;;4.30;4.00;;;8.80;99.90;;;;;;6090314;23;20385;-77
2023/01/02 20:12:46;;;;;;;5.20;4.80;;;8.80;99.90;;;;;;6067017;23;20408;-78
2023/01/02 20:15:19;;;;;;;4.13;3.83;;;8.80;99.90;;;;;;6042463;23;20417;-77
2023/01/02 20:17:47;;;;;;;4.90;4.50;;;8.80;99.90;;;;;;6067336;23;20381;-78
2023/01/02 20:20:20;;;;;;;5.33;4.93;;;8.70;99.90;;;;;;6090006;23;20714;-79
2023/01/02 20:22:50;;;;;;;4.28;3.97;;;8.70;99.90;;;;;;6065938;23;20392;-78
2023/01/02 20:25:22;;;;;;;4.80;4.40;;;8.70;99.90;;;;;;6065581;23;20389;-78
2023/01/02 20:27:54;;;;;;;4.97;4.57;;;8.70;99.90;;;;;;6065916;23;20405;-78
2023/01/02 20:30:22;;;;;;;4.55;4.25;;;8.70;99.90;;;;;;6065030;23;20714;-78
2023/01/02 20:32:52;;;;;;;5.13;4.72;;;8.70;99.90;;;;;;6092406;23;20381;-78
2023/01/02 20:35:19;;;;;;;4.07;3.78;;;8.60;99.90;;;;;;6066708;23;20461;-77
2023/01/02 20:37:46;;;;;;;4.63;4.32;;;8.60;99.90;;;;;;6067271;23;20382;-78
2023/01/02 20:40:14;;;;;;;4.50;4.20;;;8.60;99.90;;;;;;6090553;23;20747;-77
2023/01/02 20:42:42;;;;;;;4.05;3.75;;;8.60;99.90;;;;;;6090391;23;20762;-78
2023/01/02 20:45:09;;;;;;;4.30;4.00;;;8.60;99.90;;;;;;6064784;23;20385;-78
2023/01/02 20:47:36;;;;;;;5.53;5.13;;;8.60;99.90;;;;;;6065692;23;20381;-77
2023/01/02 20:50:03;;;;;;;4.82;4.53;;;8.60;99.90;;;;;;6066216;23;20374;-77
2023/01/02 20:52:30;;;;;;;5.47;5.07;;;8.60;99.90;;;;;;6066991;23;20389;-78
2023/01/02 20:54:57;;;;;;;4.53;4.22;;;8.60;99.90;;;;;;6066492;23;20464;-78
2023/01/02 20:57:24;;;;;;;4.85;4.55;;;8.50;99.90;;;;;;6064880;23;20710;-78
2023/01/02 20:59:51;;;;;;;4.80;4.50;;;8.50;99.90;;;;;;6066022;23;20715;-78
2023/01/02 21:02:18;;;;;;;5.90;5.40;;;8.50;99.90;;;;;;6065912;23;20762;-78
2023/01/02 21:04:45;;;;;;;5.82;5.43;;;8.60;99.90;;;;;;6093358;23;20409;-77
2023/01/02 21:07:12;;;;;;;5.22;4.88;;;8.60;99.90;;;;;;6066891;23;20392;-78
2023/01/02 21:09:39;;;;;;;5.30;4.95;;;8.60;99.90;;;;;;6093139;23;20377;-77
2023/01/02 21:13:06;;;;;;;5.70;5.25;;;8.60;99.90;;;;;;6089625;23;20381;-77
2023/01/02 21:14:53;;;;;;;6.28;5.78;;;8.50;99.90;;;;;;6091017;23;20401;-77
2023/01/02 21:17:20;;;;;;;6.05;5.60;;;8.40;99.90;;;;;;6064894;23;20416;-77
2023/01/02 21:19:47;;;;;;;6.43;5.93;;;8.40;99.90;;;;;;6065843;23;20393;-77
2023/01/02 21:22:15;;;;;;;6.60;6.10;;;8.40;99.90;;;;;;6089648;23;20850;-76
2023/01/02 21:24:42;;;;;;;6.57;6.07;;;8.40;99.90;;;;;;6091585;23;20385;-76
2023/01/02 21:27:09;;;;;;;6.40;5.90;;;8.30;99.90;;;;;;6065492;23;20389;-77
2023/01/02 21:29:39;;;;;;;5.80;5.40;;;8.30;99.90;;;;;;6091849;23;20423;-79
2023/01/02 21:32:06;;;;;;;6.00;5.60;;;8.20;99.90;;;;;;6065909;23;20429;-79
2023/01/02 21:34:33;;;;;;;5.38;4.97;;;8.30;99.90;;;;;;6066401;23;20456;-79
2023/01/02 21:37:00;;;;;;;5.88;5.47;;;8.30;99.90;;;;;;6066907;23;20389;-79
2023/01/02 21:39:27;;;;;;;6.60;6.10;;;8.30;99.90;;;;;;6066059;23;20377;-79
2023/01/02 21:44:40;;;;;;;6.00;5.60;;;8.30;99.90;;;;;;6062742;23;20438;-78
2023/01/02 21:47:07;;;;;;;6.43;5.93;;;8.30;99.90;;;;;;6051769;23;20401;-79
2023/01/02 21:49:34;;;;;;;7.22;6.63;;;8.30;99.90;;;;;;6063073;23;20394;-79
2023/01/02 21:52:01;;;;;;;6.93;6.32;;;8.30;99.90;;;;;;6050742;23;20417;-79
2023/01/02 21:54:28;;;;;;;5.88;5.47;;;8.30;99.90;;;;;;6063026;23;20387;-78
2023/01/02 21:56:56;;;;;;;5.00;4.70;;;8.40;99.90;;;;;;6052141;23;20715;-79
2023/01/02 21:59:24;;;;;;;5.18;4.78;;;8.40;99.90;;;;;;6063141;23;20705;-77
2023/01/02 22:01:55;;;;;;;5.40;5.00;;;8.40;99.90;;;;;;6052322;23;20696;-77
2023/01/02 22:04:22;;;;;;;6.05;5.45;;;8.40;99.90;;;;;;6064630;23;20391;-77
2023/01/02 22:06:50;;;;;;;6.90;6.20;;;8.40;99.90;;;;;;6052749;23;20700;-78
2023/01/02 22:09:37;;;;;;;5.32;4.93;;;8.30;99.90;;;;;;6063832;23;20379;-77
2023/01/02 22:12:05;;;;;;;6.65;6.15;;;8.30;99.90;;;;;;6050155;23;20407;-77
2023/01/02 22:14:35;;;;;;;5.70;5.30;;;8.20;99.90;;;;;;6061822;23;20382;-77
2023/01/02 22:17:07;;;;;;;5.30;4.90;;;8.20;99.90;;;;;;6051843;23;20383;-77
2023/01/02 22:19:35;;;;;;;5.88;5.47;;;8.20;99.90;;;;;;6062530;23;20451;-77
2023/01/02 22:22:02;;;;;;;4.97;4.63;;;8.20;99.90;;;;;;6065096;23;20771;-78
2023/01/02 22:24:30;;;;;;;5.45;5.05;;;8.20;99.90;;;;;;6050461;23;20420;-77
2023/01/02 22:27:02;;;;;;;5.80;5.30;;;8.20;99.90;;;;;;6052125;23;20371;-78